Time;durP1;ratioP1;P1;durP2;ratioP2;P2;SDS_P1;SDS_P2;PMS_P1;PMS_P2;Temp;Humidity;BMP_temperature;BMP_pressure;BME280_temperature;BME280_humidity;BME280_pressure;Samples;Min_cycle;Max_cycle;Signal;HPM_P1;HPM_P2
2022/12/10 00:02:29;;;;;;;0.60;0.60;;;;;;;;;;5037572;28;20226;-76
2022/12/10 00:04:55;;;;;;;0.60;0.50;;;;;;;;;;5056958;28;20579;-76
2022/12/10 00:07:24;;;;;;;0.60;0.60;;;;;;;;;;5056977;28;20777;-77
2022/12/10 00:09:52;;;;;;;0.60;0.50;;;;;;;;;;5052708;28;20189;-77
2022/12/10 00:12:19;;;;;;;2.22;2.03;;;;;;;;;;5057909;28;20209;-76
2022/12/10 00:14:46;;;;;;;0.60;0.60;;;;;;;;;;5053311;28;20204;-77
2022/12/10 00:17:13;;;;;;;0.60;0.60;;;;;;;;;;5059922;28;20190;-76
2022/12/10 00:19:41;;;;;;;0.60;0.60;;;;;;;;;;5052115;28;20194;-77
2022/12/10 00:22:09;;;;;;;1.50;1.40;;;;;;;;;;5042111;28;20666;-77
2022/12/10 00:24:37;;;;;;;0.85;0.85;;;;;;;;;;5061835;28;20599;-77
2022/12/10 00:27:04;;;;;;;0.60;0.60;;;;;;;;;;5059811;28;20285;-76
2022/12/10 00:29:31;;;;;;;0.70;0.70;;;;;;;;;;5060840;28;20193;-76
2022/12/10 00:32:05;;;;;;;0.60;0.60;;;;;;;;;;5035809;28;20206;-78
2022/12/10 00:34:31;;;;;;;0.60;0.60;;;;;;;;;;5027667;28;20194;-78
2022/12/10 00:36:59;;;;;;;0.60;0.50;;;;;;;;;;5046012;28;20256;-78
2022/12/10 00:39:29;;;;;;;0.60;0.50;;;;;;;;;;5037537;28;20210;-78
2022/12/10 00:41:57;;;;;;;1.52;1.42;;;;;;;;;;5041852;28;20203;-77
2022/12/10 00:44:25;;;;;;;0.60;0.60;;;;;;;;;;5058172;28;20197;-77
2022/12/10 00:46:51;;;;;;;0.60;0.60;;;;;;;;;;5040320;28;20194;-78
2022/12/10 00:49:18;;;;;;;0.60;0.50;;;;;;;;;;5058226;28;20232;-78
2022/12/10 00:51:44;;;;;;;1.20;1.13;;;;;;;;;;5055132;28;20192;-79
2022/12/10 00:54:12;;;;;;;0.70;0.60;;;;;;;;;;5060650;28;20202;-77
2022/12/10 00:56:39;;;;;;;0.68;0.68;;;;;;;;;;5060505;28;20190;-78
2022/12/10 00:59:07;;;;;;;0.60;0.60;;;;;;;;;;5046420;28;20200;-78
2022/12/10 01:01:34;;;;;;;0.70;0.70;;;;;;;;;;5064226;28;20280;-78
2022/12/10 01:04:02;;;;;;;0.60;0.57;;;;;;;;;;5064360;28;20229;-77
2022/12/10 01:06:30;;;;;;;0.60;0.60;;;;;;;;;;5064242;28;20196;-77
2022/12/10 01:08:59;;;;;;;0.60;0.60;;;;;;;;;;5050112;28;20240;-79
2022/12/10 01:11:27;;;;;;;0.60;0.60;;;;;;;;;;5050684;28;20654;-78
2022/12/10 01:13:54;;;;;;;0.98;0.98;;;;;;;;;;5065065;28;20685;-78
2022/12/10 01:16:23;;;;;;;0.60;0.60;;;;;;;;;;5059384;28;20206;-78
2022/12/10 01:18:52;;;;;;;0.60;0.60;;;;;;;;;;5049652;28;20582;-79
2022/12/10 01:21:19;;;;;;;0.70;0.70;;;;;;;;;;5037647;28;20208;-78
2022/12/10 01:23:48;;;;;;;0.70;0.70;;;;;;;;;;5058798;28;20212;-79
2022/12/10 01:26:17;;;;;;;0.60;0.60;;;;;;;;;;5058324;28;20197;-79
2022/12/10 01:28:44;;;;;;;0.60;0.60;;;;;;;;;;5054992;28;20615;-79
2022/12/10 01:31:14;;;;;;;1.67;1.58;;;;;;;;;;5059503;28;20202;-78
2022/12/10 01:33:43;;;;;;;0.60;0.50;;;;;;;;;;5047108;28;20631;-78
2022/12/10 01:36:11;;;;;;;1.33;1.23;;;;;;;;;;5046686;28;20220;-79
2022/12/10 01:38:38;;;;;;;0.60;0.60;;;;;;;;;;5046706;28;20205;-78
2022/12/10 01:41:06;;;;;;;0.60;0.60;;;;;;;;;;5062559;28;20216;-79
2022/12/10 01:43:48;;;;;;;0.60;0.50;;;;;;;;;;5044028;28;20214;-79
2022/12/10 01:46:16;;;;;;;0.80;0.80;;;;;;;;;;5029064;28;20200;-78
2022/12/10 01:48:45;;;;;;;0.60;0.50;;;;;;;;;;5066726;28;20248;-79
2022/12/10 01:51:12;;;;;;;0.63;0.63;;;;;;;;;;5055327;28;20205;-78
2022/12/10 01:53:40;;;;;;;0.60;0.60;;;;;;;;;;5067380;28;20191;-79
2022/12/10 01:56:08;;;;;;;0.70;0.70;;;;;;;;;;5036002;28;20276;-78
2022/12/10 01:58:35;;;;;;;1.25;1.15;;;;;;;;;;5040809;28;20678;-78
2022/12/10 02:01:05;;;;;;;0.80;0.80;;;;;;;;;;5049677;28;20258;-78
2022/12/10 02:03:37;;;;;;;1.23;1.23;;;;;;;;;;5054497;28;20237;-78
2022/12/10 02:06:12;;;;;;;0.60;0.50;;;;;;;;;;5045604;28;20205;-79
2022/12/10 02:08:41;;;;;;;0.60;0.60;;;;;;;;;;5045304;28;20684;-79
2022/12/10 02:11:13;;;;;;;0.60;0.60;;;;;;;;;;5051540;28;20272;-79
2022/12/10 02:13:42;;;;;;;0.60;0.60;;;;;;;;;;5050065;28;20206;-78
2022/12/10 02:16:13;;;;;;;0.60;0.50;;;;;;;;;;5025104;28;20543;-79
2022/12/10 02:18:43;;;;;;;0.70;0.70;;;;;;;;;;5049887;28;20268;-78
2022/12/10 02:21:15;;;;;;;0.60;0.52;;;;;;;;;;5050840;28;20186;-78
2022/12/10 02:23:44;;;;;;;0.60;0.60;;;;;;;;;;5038018;28;20208;-77
2022/12/10 02:26:13;;;;;;;0.60;0.50;;;;;;;;;;5055808;28;20201;-77
2022/12/10 02:28:43;;;;;;;0.60;0.50;;;;;;;;;;5051182;28;20217;-77
2022/12/10 02:31:13;;;;;;;0.60;0.60;;;;;;;;;;5051572;28;20226;-78
2022/12/10 02:33:43;;;;;;;0.60;0.60;;;;;;;;;;5057140;28;20578;-77
2022/12/10 02:36:10;;;;;;;0.60;0.60;;;;;;;;;;5051695;28;20197;-77
2022/12/10 02:38:39;;;;;;;0.90;0.90;;;;;;;;;;5031559;28;20201;-77
2022/12/10 02:41:13;;;;;;;0.60;0.60;;;;;;;;;;5041275;28;20208;-77
2022/12/10 02:43:40;;;;;;;0.60;0.60;;;;;;;;;;5037643;28;20197;-78
2022/12/10 02:46:07;;;;;;;0.60;0.60;;;;;;;;;;5035088;28;20241;-77
2022/12/10 02:48:36;;;;;;;0.60;0.60;;;;;;;;;;5036414;28;20221;-76
2022/12/10 02:51:05;;;;;;;0.65;0.65;;;;;;;;;;5039319;28;20205;-76
2022/12/10 02:53:42;;;;;;;0.60;0.57;;;;;;;;;;5055478;28;20563;-77
2022/12/10 02:56:14;;;;;;;0.60;0.60;;;;;;;;;;5024638;28;20220;-76
2022/12/10 02:58:53;;;;;;;0.60;0.50;;;;;;;;;;5035387;28;20223;-76
2022/12/10 03:01:26;;;;;;;0.60;0.50;;;;;;;;;;5048220;28;20587;-76
2022/12/10 03:04:05;;;;;;;0.60;0.50;;;;;;;;;;5035660;28;20311;-77
2022/12/10 03:06:36;;;;;;;1.45;1.35;;;;;;;;;;5039492;28;20194;-75
2022/12/10 03:09:13;;;;;;;0.60;0.50;;;;;;;;;;5055378;28;20220;-78
2022/12/10 03:11:42;;;;;;;0.60;0.60;;;;;;;;;;5062140;28;20192;-76
2022/12/10 03:14:15;;;;;;;0.50;0.50;;;;;;;;;;5055318;28;20273;-76
2022/12/10 03:16:48;;;;;;;0.60;0.60;;;;;;;;;;5046251;28;20209;-76
2022/12/10 03:19:27;;;;;;;0.60;0.60;;;;;;;;;;5044909;28;20249;-76
2022/12/10 03:21:56;;;;;;;0.60;0.50;;;;;;;;;;5034655;28;20198;-75
2022/12/10 03:24:25;;;;;;;0.50;0.50;;;;;;;;;;5054459;28;20673;-76
2022/12/10 03:27:17;;;;;;;0.50;0.50;;;;;;;;;;5053088;28;20314;-78
2022/12/10 03:29:53;;;;;;;0.57;0.57;;;;;;;;;;5057858;28;20214;-77
2022/12/10 03:32:23;;;;;;;0.52;0.50;;;;;;;;;;5057521;28;20654;-76
2022/12/10 03:34:55;;;;;;;0.60;0.60;;;;;;;;;;5035988;28;20204;-76
2022/12/10 03:37:28;;;;;;;0.57;0.57;;;;;;;;;;5060376;28;20204;-75
2022/12/10 03:39:56;;;;;;;0.70;0.70;;;;;;;;;;5035776;28;20576;-76
2022/12/10 03:42:25;;;;;;;0.50;0.50;;;;;;;;;;5063922;28;20697;-76
2022/12/10 03:44:55;;;;;;;0.60;0.60;;;;;;;;;;5060167;28;20256;-75
2022/12/10 03:47:26;;;;;;;1.02;1.02;;;;;;;;;;5066066;28;20315;-77
2022/12/10 03:49:57;;;;;;;0.50;0.50;;;;;;;;;;5067334;28;20441;-77
2022/12/10 03:52:26;;;;;;;0.52;0.50;;;;;;;;;;5062645;28;20201;-78
2022/12/10 03:54:55;;;;;;;0.50;0.50;;;;;;;;;;5066047;28;20212;-78
2022/12/10 03:57:24;;;;;;;0.50;0.50;;;;;;;;;;5066413;28;20196;-78
2022/12/10 03:59:55;;;;;;;0.50;0.50;;;;;;;;;;5065024;28;20197;-77
2022/12/10 04:02:24;;;;;;;0.50;0.50;;;;;;;;;;5057828;28;20213;-76
2022/12/10 04:04:57;;;;;;;0.60;0.60;;;;;;;;;;5054768;28;20213;-78
2022/12/10 04:07:30;;;;;;;0.77;0.70;;;;;;;;;;5057213;28;20193;-77
2022/12/10 04:09:59;;;;;;;0.50;0.50;;;;;;;;;;5055811;28;20766;-77
2022/12/10 04:12:31;;;;;;;0.60;0.60;;;;;;;;;;5057952;28;20198;-76
2022/12/10 04:17:58;;;;;;;0.60;0.60;;;;;;;;;;5058519;28;20213;-77
2022/12/10 04:28:58;;;;;;;0.50;0.50;;;;;;;;;;5051882;28;20255;-76
2022/12/10 04:31:34;;;;;;;0.60;0.60;;;;;;;;;;5052979;28;20247;-77
2022/12/10 04:34:04;;;;;;;0.60;0.60;;;;;;;;;;5059594;28;20216;-77
2022/12/10 04:36:31;;;;;;;0.50;0.50;;;;;;;;;;5052412;28;20198;-77
2022/12/10 04:39:02;;;;;;;0.88;0.88;;;;;;;;;;5050535;28;20208;-76
2022/12/10 04:41:29;;;;;;;0.65;0.65;;;;;;;;;;5051398;28;20260;-76
2022/12/10 04:43:56;;;;;;;0.60;0.50;;;;;;;;;;5044866;28;20661;-76
2022/12/10 04:46:23;;;;;;;0.52;0.50;;;;;;;;;;5049538;28;20197;-77
2022/12/10 04:48:50;;;;;;;0.60;0.50;;;;;;;;;;5034956;28;20276;-75
2022/12/10 04:51:16;;;;;;;0.60;0.60;;;;;;;;;;5040099;28;20252;-76
2022/12/10 04:53:44;;;;;;;0.60;0.60;;;;;;;;;;5052297;28;20650;-75
2022/12/10 04:56:12;;;;;;;0.60;0.60;;;;;;;;;;5047798;28;20210;-76
2022/12/10 04:58:39;;;;;;;0.70;0.70;;;;;;;;;;5050340;28;20576;-76
2022/12/10 05:01:07;;;;;;;0.60;0.60;;;;;;;;;;5045323;28;20663;-75
2022/12/10 05:03:34;;;;;;;0.60;0.60;;;;;;;;;;5038076;28;20221;-76
2022/12/10 05:06:02;;;;;;;0.60;0.60;;;;;;;;;;5036849;28;20210;-76
2022/12/10 05:08:30;;;;;;;0.60;0.60;;;;;;;;;;5054607;28;20260;-75
2022/12/10 05:11:00;;;;;;;0.60;0.60;;;;;;;;;;5059239;28;20193;-75
2022/12/10 05:13:28;;;;;;;0.60;0.50;;;;;;;;;;5055489;28;20535;-75
2022/12/10 05:15:56;;;;;;;0.60;0.50;;;;;;;;;;5057268;28;20657;-75
2022/12/10 05:18:23;;;;;;;0.60;0.60;;;;;;;;;;5057024;28;20316;-75
2022/12/10 05:20:50;;;;;;;0.63;0.63;;;;;;;;;;5043610;28;20563;-75
2022/12/10 05:23:29;;;;;;;2.80;2.60;;;;;;;;;;5033819;28;20236;-75
2022/12/10 05:26:00;;;;;;;0.60;0.60;;;;;;;;;;5039704;28;20236;-75
2022/12/10 05:28:29;;;;;;;0.70;0.70;;;;;;;;;;5044116;28;20223;-76
2022/12/10 05:30:57;;;;;;;0.90;0.90;;;;;;;;;;5038187;28;20193;-75
2022/12/10 05:33:25;;;;;;;0.60;0.60;;;;;;;;;;5048391;28;20618;-76
2022/12/10 05:35:53;;;;;;;0.60;0.50;;;;;;;;;;5051841;28;20640;-77
2022/12/10 05:38:20;;;;;;;0.60;0.60;;;;;;;;;;5044173;28;20613;-78
2022/12/10 05:40:48;;;;;;;0.60;0.60;;;;;;;;;;5057358;28;20200;-76
2022/12/10 05:43:24;;;;;;;0.60;0.60;;;;;;;;;;5057430;28;20605;-75
2022/12/10 05:45:52;;;;;;;0.80;0.77;;;;;;;;;;5036681;28;20278;-76
2022/12/10 05:48:20;;;;;;;0.90;0.90;;;;;;;;;;5057937;28;20287;-76
2022/12/10 05:50:47;;;;;;;0.60;0.60;;;;;;;;;;5062460;28;20706;-76
2022/12/10 05:53:14;;;;;;;0.60;0.60;;;;;;;;;;5065419;28;20206;-76
2022/12/10 05:55:41;;;;;;;0.60;0.60;;;;;;;;;;5051982;28;20242;-75
2022/12/10 05:58:07;;;;;;;0.60;0.50;;;;;;;;;;5062339;28;20304;-76
2022/12/10 06:00:34;;;;;;;0.60;0.60;;;;;;;;;;5056710;28;20276;-75
2022/12/10 06:03:05;;;;;;;0.60;0.55;;;;;;;;;;5060964;28;20263;-75
2022/12/10 06:05:35;;;;;;;0.60;0.60;;;;;;;;;;5048541;28;20197;-76
2022/12/10 06:08:03;;;;;;;0.60;0.60;;;;;;;;;;5046279;28;20300;-76
2022/12/10 06:10:31;;;;;;;0.60;0.60;;;;;;;;;;5059236;28;20604;-75
2022/12/10 06:12:57;;;;;;;0.60;0.60;;;;;;;;;;5052739;28;20196;-76
2022/12/10 06:15:24;;;;;;;0.90;0.90;;;;;;;;;;5055198;28;20201;-76
2022/12/10 06:17:52;;;;;;;0.60;0.60;;;;;;;;;;5040075;28;20625;-75
2022/12/10 06:20:20;;;;;;;0.60;0.60;;;;;;;;;;5038368;28;20197;-76
2022/12/10 06:22:47;;;;;;;0.60;0.50;;;;;;;;;;5042151;28;20192;-75
2022/12/10 06:25:14;;;;;;;0.63;0.63;;;;;;;;;;5061355;28;20203;-75
2022/12/10 06:27:42;;;;;;;0.60;0.50;;;;;;;;;;5060299;28;20200;-76
2022/12/10 06:30:09;;;;;;;0.60;0.60;;;;;;;;;;5056930;28;20298;-76
2022/12/10 06:32:37;;;;;;;0.60;0.57;;;;;;;;;;5046825;28;20342;-75
2022/12/10 06:35:04;;;;;;;0.60;0.60;;;;;;;;;;5061787;28;20666;-75
2022/12/10 06:37:33;;;;;;;0.70;0.70;;;;;;;;;;5066119;28;20281;-75
2022/12/10 06:40:00;;;;;;;0.60;0.60;;;;;;;;;;5046011;28;20194;-76
2022/12/10 06:42:50;;;;;;;0.70;0.60;;;;;;;;;;5052861;28;20189;-75
2022/12/10 06:45:17;;;;;;;0.60;0.60;;;;;;;;;;5050193;28;20343;-75
2022/12/10 06:47:46;;;;;;;0.60;0.60;;;;;;;;;;5033268;28;20689;-77
2022/12/10 06:50:13;;;;;;;0.60;0.60;;;;;;;;;;5053416;28;20231;-76
2022/12/10 06:52:41;;;;;;;1.02;1.02;;;;;;;;;;5054393;28;20718;-75
2022/12/10 06:55:08;;;;;;;0.65;0.65;;;;;;;;;;5054797;28;20216;-76
2022/12/10 06:57:35;;;;;;;0.60;0.60;;;;;;;;;;5053804;28;20669;-76
2022/12/10 07:00:02;;;;;;;1.27;1.17;;;;;;;;;;5060375;28;20197;-75
2022/12/10 07:02:29;;;;;;;0.60;0.57;;;;;;;;;;5040683;28;20226;-75
2022/12/10 07:04:56;;;;;;;0.60;0.50;;;;;;;;;;5049750;28;20275;-75
2022/12/10 07:07:22;;;;;;;0.60;0.60;;;;;;;;;;5034359;28;20205;-76
2022/12/10 07:09:51;;;;;;;1.15;1.08;;;;;;;;;;5035248;28;20221;-75
2022/12/10 07:12:18;;;;;;;1.15;1.15;;;;;;;;;;5044384;28;20256;-75
2022/12/10 07:14:45;;;;;;;0.73;0.73;;;;;;;;;;5031802;28;20205;-76
2022/12/10 07:17:12;;;;;;;0.60;0.60;;;;;;;;;;5047898;28;20605;-77
2022/12/10 07:19:39;;;;;;;0.60;0.60;;;;;;;;;;5055778;28;20181;-77
2022/12/10 07:22:07;;;;;;;0.60;0.60;;;;;;;;;;5058744;28;20205;-76
2022/12/10 07:24:35;;;;;;;0.60;0.60;;;;;;;;;;5053296;28;20189;-76
2022/12/10 07:27:05;;;;;;;0.60;0.60;;;;;;;;;;5032929;28;20237;-76
2022/12/10 07:29:33;;;;;;;0.60;0.60;;;;;;;;;;5037413;28;20702;-75
2022/12/10 07:32:00;;;;;;;0.60;0.60;;;;;;;;;;5028324;28;20228;-76
2022/12/10 07:34:27;;;;;;;0.60;0.60;;;;;;;;;;5051612;28;21172;-74
2022/12/10 07:36:54;;;;;;;0.60;0.60;;;;;;;;;;5040895;28;20204;-75
2022/12/10 07:39:22;;;;;;;0.60;0.60;;;;;;;;;;5052735;28;20281;-75
2022/12/10 07:41:51;;;;;;;0.60;0.60;;;;;;;;;;5038382;28;20208;-74
2022/12/10 07:44:20;;;;;;;0.60;0.60;;;;;;;;;;5054132;28;20189;-75
2022/12/10 07:46:48;;;;;;;0.60;0.50;;;;;;;;;;5049193;28;20224;-76
2022/12/10 07:49:15;;;;;;;0.80;0.80;;;;;;;;;;5048509;28;20266;-76
2022/12/10 07:51:43;;;;;;;0.60;0.57;;;;;;;;;;5050950;28;20199;-76
2022/12/10 07:54:10;;;;;;;2.05;1.40;;;;;;;;;;5052028;28;20189;-75
2022/12/10 07:56:38;;;;;;;0.60;0.60;;;;;;;;;;5056268;28;20231;-76
2022/12/10 07:59:05;;;;;;;0.73;0.73;;;;;;;;;;5058456;28;20200;-75
2022/12/10 08:01:34;;;;;;;0.60;0.60;;;;;;;;;;5055671;28;20187;-76
2022/12/10 08:04:02;;;;;;;1.70;1.60;;;;;;;;;;5046526;28;20217;-76
2022/12/10 08:06:29;;;;;;;4.55;1.50;;;;;;;;;;5043874;28;20202;-75
2022/12/10 08:08:58;;;;;;;0.60;0.60;;;;;;;;;;5037469;28;20266;-76
2022/12/10 08:11:26;;;;;;;0.60;0.60;;;;;;;;;;5055213;28;20207;-75
2022/12/10 08:13:56;;;;;;;0.60;0.60;;;;;;;;;;5043532;28;20684;-74
2022/12/10 08:16:25;;;;;;;0.60;0.60;;;;;;;;;;5049936;28;20672;-75
2022/12/10 08:18:54;;;;;;;1.02;1.02;;;;;;;;;;5042288;28;20211;-75
2022/12/10 08:21:22;;;;;;;0.60;0.60;;;;;;;;;;5059119;28;20251;-75
2022/12/10 08:23:49;;;;;;;0.60;0.60;;;;;;;;;;5041482;28;20291;-76
2022/12/10 08:26:17;;;;;;;0.60;0.60;;;;;;;;;;5042504;28;20283;-76
2022/12/10 08:28:44;;;;;;;0.60;0.60;;;;;;;;;;5062819;28;20196;-75
2022/12/10 08:31:12;;;;;;;0.60;0.60;;;;;;;;;;5062831;28;20243;-76
2022/12/10 08:33:39;;;;;;;1.08;0.98;;;;;;;;;;5058363;28;20500;-75
2022/12/10 08:36:08;;;;;;;0.70;0.70;;;;;;;;;;5054277;28;20288;-75
2022/12/10 08:38:37;;;;;;;0.60;0.60;;;;;;;;;;5061407;28;20234;-75
2022/12/10 08:41:08;;;;;;;0.60;0.60;;;;;;;;;;5064923;28;20193;-75
2022/12/10 08:43:36;;;;;;;0.60;0.60;;;;;;;;;;5051621;28;20203;-76
2022/12/10 08:46:03;;;;;;;0.60;0.60;;;;;;;;;;5055336;28;20289;-75
2022/12/10 08:48:31;;;;;;;0.60;0.60;;;;;;;;;;5052985;28;20247;-74
2022/12/10 08:50:58;;;;;;;0.60;0.60;;;;;;;;;;5058787;28;20288;-75
2022/12/10 08:53:27;;;;;;;0.73;0.73;;;;;;;;;;5054939;28;20604;-75
2022/12/10 08:55:54;;;;;;;0.60;0.60;;;;;;;;;;5069367;28;20193;-74
2022/12/10 08:58:21;;;;;;;0.60;0.60;;;;;;;;;;5068123;28;20205;-76
2022/12/10 09:00:48;;;;;;;0.60;0.60;;;;;;;;;;5047264;28;20207;-76
2022/12/10 09:03:16;;;;;;;0.60;0.60;;;;;;;;;;5049762;28;20619;-76
2022/12/10 09:05:44;;;;;;;1.45;1.38;;;;;;;;;;5068115;28;20219;-75
2022/12/10 09:08:11;;;;;;;0.60;0.50;;;;;;;;;;5063449;28;20207;-75
2022/12/10 09:10:39;;;;;;;0.60;0.60;;;;;;;;;;5065907;28;20286;-76
2022/12/10 09:13:07;;;;;;;0.60;0.60;;;;;;;;;;5066253;28;20598;-77
2022/12/10 09:15:37;;;;;;;0.65;0.65;;;;;;;;;;5066139;28;20197;-76
2022/12/10 09:18:04;;;;;;;0.60;0.50;;;;;;;;;;5051843;28;20615;-75
2022/12/10 09:20:30;;;;;;;0.60;0.60;;;;;;;;;;5052954;28;20193;-76
2022/12/10 09:22:57;;;;;;;0.60;0.60;;;;;;;;;;5064735;28;20205;-76
2022/12/10 09:25:24;;;;;;;0.60;0.60;;;;;;;;;;5065688;28;20221;-75
2022/12/10 09:27:52;;;;;;;0.60;0.60;;;;;;;;;;5054033;28;20205;-76
2022/12/10 09:30:19;;;;;;;0.60;0.60;;;;;;;;;;5066402;28;20226;-75
2022/12/10 09:32:46;;;;;;;0.60;0.60;;;;;;;;;;5052053;28;20225;-75
2022/12/10 09:35:12;;;;;;;0.60;0.60;;;;;;;;;;5064036;28;20189;-77
2022/12/10 09:37:39;;;;;;;0.60;0.60;;;;;;;;;;5048918;28;20220;-75
2022/12/10 09:40:09;;;;;;;0.60;0.60;;;;;;;;;;5057774;28;20204;-75
2022/12/10 09:42:41;;;;;;;0.70;0.70;;;;;;;;;;5052266;28;20198;-75
2022/12/10 09:45:14;;;;;;;0.60;0.60;;;;;;;;;;5049060;28;20670;-75
2022/12/10 09:47:46;;;;;;;0.60;0.60;;;;;;;;;;5051488;28;20213;-76
2022/12/10 09:50:17;;;;;;;0.60;0.60;;;;;;;;;;5036837;28;20247;-76
2022/12/10 09:52:47;;;;;;;0.60;0.60;;;;;;;;;;5036521;28;20201;-75
2022/12/10 09:55:17;;;;;;;0.60;0.60;;;;;;;;;;5047487;28;20687;-75
2022/12/10 09:57:46;;;;;;;0.60;0.60;;;;;;;;;;5046202;28;20292;-76
2022/12/10 10:00:19;;;;;;;2.65;1.90;;;;;;;;;;5056524;28;20201;-75
2022/12/10 10:02:48;;;;;;;0.60;0.60;;;;;;;;;;5042743;28;20216;-75
2022/12/10 10:05:19;;;;;;;0.70;0.70;;;;;;;;;;5057169;28;20208;-75
2022/12/10 10:07:48;;;;;;;0.70;0.70;;;;;;;;;;5055076;28;20617;-76
2022/12/10 10:10:21;;;;;;;1.65;1.55;;;;;;;;;;5038852;28;20259;-76
2022/12/10 10:12:50;;;;;;;1.45;1.35;;;;;;;;;;5056967;28;20201;-76
2022/12/10 10:15:22;;;;;;;1.10;1.10;;;;;;;;;;5054413;28;20194;-75
2022/12/10 10:17:53;;;;;;;0.70;0.70;;;;;;;;;;5059291;28;20676;-75
2022/12/10 10:20:20;;;;;;;0.60;0.60;;;;;;;;;;5053733;28;20590;-76
2022/12/10 10:22:48;;;;;;;0.65;0.65;;;;;;;;;;5040131;28;20232;-75
2022/12/10 10:25:17;;;;;;;1.73;1.63;;;;;;;;;;5056717;28;20229;-75
2022/12/10 10:27:44;;;;;;;0.70;0.70;;;;;;;;;;5056329;28;20224;-76
2022/12/10 10:30:16;;;;;;;0.70;0.60;;;;;;;;;;5058985;28;20188;-76
2022/12/10 10:32:50;;;;;;;0.60;0.60;;;;;;;;;;5056073;28;20247;-76
2022/12/10 10:35:22;;;;;;;0.60;0.60;;;;;;;;;;5053035;28;20189;-76
2022/12/10 10:37:50;;;;;;;0.65;0.60;;;;;;;;;;5042507;28;20198;-76
2022/12/10 10:40:23;;;;;;;0.60;0.60;;;;;;;;;;5037983;28;20206;-76
2022/12/10 10:42:52;;;;;;;1.65;1.55;;;;;;;;;;5039358;28;20567;-76
2022/12/10 10:45:33;;;;;;;0.60;0.60;;;;;;;;;;5051693;28;20650;-76
2022/12/10 10:48:05;;;;;;;0.95;0.95;;;;;;;;;;5059233;28;20224;-76
2022/12/10 10:50:36;;;;;;;0.60;0.60;;;;;;;;;;5035396;28;20262;-76
2022/12/10 10:53:18;;;;;;;0.65;0.65;;;;;;;;;;5055382;28;20232;-76
2022/12/10 10:55:45;;;;;;;0.60;0.60;;;;;;;;;;5039967;28;20552;-76
2022/12/10 10:58:16;;;;;;;1.02;0.98;;;;;;;;;;5050524;28;20190;-76
2022/12/10 11:00:52;;;;;;;0.60;0.60;;;;;;;;;;5061334;28;20189;-76
2022/12/10 11:03:21;;;;;;;0.65;0.65;;;;;;;;;;5057222;28;20228;-77
2022/12/10 11:05:54;;;;;;;0.60;0.60;;;;;;;;;;5060024;28;20197;-77
2022/12/10 11:08:44;;;;;;;0.60;0.60;;;;;;;;;;5062031;28;20184;-78
2022/12/10 11:11:16;;;;;;;7.32;2.35;;;;;;;;;;5046138;28;20220;-76
2022/12/10 11:13:44;;;;;;;0.60;0.60;;;;;;;;;;5044539;28;20296;-77
2022/12/10 11:16:18;;;;;;;0.70;0.70;;;;;;;;;;5046305;28;20212;-77
2022/12/10 11:18:55;;;;;;;0.70;0.60;;;;;;;;;;5055825;28;20552;-77
2022/12/10 11:21:23;;;;;;;0.70;0.70;;;;;;;;;;5042476;28;20288;-76
2022/12/10 11:23:52;;;;;;;0.70;0.60;;;;;;;;;;5032448;28;20256;-76
2022/12/10 11:26:46;;;;;;;0.70;0.70;;;;;;;;;;5060509;28;20202;-77
2022/12/10 11:29:21;;;;;;;0.70;0.60;;;;;;;;;;4982366;28;20205;-75
2022/12/10 11:31:54;;;;;;;0.70;0.60;;;;;;;;;;5059340;28;20216;-77
2022/12/10 11:34:28;;;;;;;1.13;1.02;;;;;;;;;;5056025;28;20206;-75
2022/12/10 11:37:01;;;;;;;0.70;0.60;;;;;;;;;;5048321;28;20728;-76
2022/12/10 11:39:33;;;;;;;0.70;0.70;;;;;;;;;;5055188;28;20749;-76
2022/12/10 11:42:04;;;;;;;0.60;0.60;;;;;;;;;;5043068;28;20682;-76
2022/12/10 11:44:35;;;;;;;1.25;1.15;;;;;;;;;;5038977;28;20685;-76
2022/12/10 11:47:18;;;;;;;0.80;0.80;;;;;;;;;;5041315;28;20596;-76
2022/12/10 11:49:54;;;;;;;1.00;0.90;;;;;;;;;;5063702;28;20185;-78
2022/12/10 11:52:29;;;;;;;0.70;0.65;;;;;;;;;;5059006;28;20270;-78
2022/12/10 11:55:01;;;;;;;0.70;0.60;;;;;;;;;;5044180;28;20201;-77
2022/12/10 11:57:37;;;;;;;0.70;0.70;;;;;;;;;;5061086;28;20564;-77
2022/12/10 12:00:17;;;;;;;0.60;0.60;;;;;;;;;;5057178;28;20192;-77
2022/12/10 12:02:54;;;;;;;0.60;0.60;;;;;;;;;;5060273;28;20224;-78
2022/12/10 12:05:27;;;;;;;0.70;0.70;;;;;;;;;;5050645;28;20561;-78
2022/12/10 12:08:02;;;;;;;0.73;0.73;;;;;;;;;;5062010;28;20193;-79
2022/12/10 12:10:45;;;;;;;0.60;0.60;;;;;;;;;;5048814;28;20249;-79
2022/12/10 12:13:24;;;;;;;0.70;0.70;;;;;;;;;;5036803;28;20193;-79
2022/12/10 12:15:54;;;;;;;0.70;0.70;;;;;;;;;;5060320;28;20691;-78
2022/12/10 12:18:25;;;;;;;0.70;0.70;;;;;;;;;;5038005;28;20249;-78
2022/12/10 12:20:53;;;;;;;0.70;0.70;;;;;;;;;;5060430;28;20985;-78
2022/12/10 12:23:24;;;;;;;0.70;0.60;;;;;;;;;;5060139;28;20198;-78
2022/12/10 12:25:53;;;;;;;0.60;0.60;;;;;;;;;;5067939;28;20282;-81
2022/12/10 12:28:21;;;;;;;0.70;0.60;;;;;;;;;;5034478;28;20202;-81
2022/12/10 12:30:49;;;;;;;0.70;0.70;;;;;;;;;;5042331;28;20198;-79
2022/12/10 12:33:20;;;;;;;0.70;0.70;;;;;;;;;;5053607;28;20226;-79
2022/12/10 12:35:49;;;;;;;0.70;0.70;;;;;;;;;;5046867;28;20204;-78
2022/12/10 12:38:23;;;;;;;0.70;0.70;;;;;;;;;;5059604;28;20189;-78
2022/12/10 12:41:02;;;;;;;0.70;0.70;;;;;;;;;;5054930;28;20673;-78
2022/12/10 12:43:37;;;;;;;3.35;1.60;;;;;;;;;;5052058;28;20662;-79
2022/12/10 12:46:10;;;;;;;0.70;0.70;;;;;;;;;;5040978;28;20201;-82
2022/12/10 12:48:43;;;;;;;0.70;0.68;;;;;;;;;;5052639;28;20277;-84
2022/12/10 12:51:12;;;;;;;0.70;0.60;;;;;;;;;;5054694;28;20222;-84
2022/12/10 12:53:40;;;;;;;0.70;0.60;;;;;;;;;;5061120;28;20193;-85
2022/12/10 12:56:14;;;;;;;0.70;0.70;;;;;;;;;;5053807;28;20201;-83
2022/12/10 12:58:47;;;;;;;0.80;0.80;;;;;;;;;;5059065;28;20194;-83
2022/12/10 13:01:20;;;;;;;0.95;0.85;;;;;;;;;;5067785;28;20232;-83
2022/12/10 13:03:48;;;;;;;1.73;1.05;;;;;;;;;;5059864;28;20209;-83
2022/12/10 13:06:17;;;;;;;0.70;0.70;;;;;;;;;;5059944;28;20279;-82
2022/12/10 13:08:46;;;;;;;0.70;0.70;;;;;;;;;;5058806;28;20772;-82
2022/12/10 13:11:19;;;;;;;0.70;0.70;;;;;;;;;;5048563;28;20896;-84
2022/12/10 13:14:01;;;;;;;2.17;1.38;;;;;;;;;;5047894;28;20724;-85
2022/12/10 13:16:35;;;;;;;0.70;0.70;;;;;;;;;;5029129;28;20232;-84
2022/12/10 13:19:20;;;;;;;0.70;0.70;;;;;;;;;;5039775;28;20550;-84
2022/12/10 13:21:59;;;;;;;0.70;0.70;;;;;;;;;;5056921;28;20199;-84
2022/12/10 13:24:44;;;;;;;0.70;0.60;;;;;;;;;;5035989;28;20222;-85
2022/12/10 13:27:17;;;;;;;0.70;0.70;;;;;;;;;;5058282;28;20730;-84
2022/12/10 13:29:46;;;;;;;0.70;0.63;;;;;;;;;;5059599;28;20186;-83
2022/12/10 13:32:15;;;;;;;0.70;0.60;;;;;;;;;;5054702;28;20298;-84
2022/12/10 13:34:42;;;;;;;0.70;0.60;;;;;;;;;;5044485;28;20680;-84
2022/12/10 13:37:18;;;;;;;0.70;0.70;;;;;;;;;;5060810;28;20274;-83
2022/12/10 13:39:46;;;;;;;0.80;0.80;;;;;;;;;;5053680;28;20195;-83
2022/12/10 13:45:27;;;;;;;0.70;0.60;;;;;;;;;;5044387;28;20205;-85
2022/12/10 13:47:55;;;;;;;0.70;0.60;;;;;;;;;;5038163;28;20242;-85
2022/12/10 13:50:30;;;;;;;7.72;2.03;;;;;;;;;;5059343;28;20216;-83
2022/12/10 13:52:59;;;;;;;0.70;0.60;;;;;;;;;;5033753;28;20721;-83
2022/12/10 13:55:31;;;;;;;0.70;0.60;;;;;;;;;;5056083;28;20221;-85
2022/12/10 13:58:22;;;;;;;0.70;0.70;;;;;;;;;;5056955;28;20193;-84
2022/12/10 14:00:53;;;;;;;0.70;0.70;;;;;;;;;;5048689;28;20215;-84
2022/12/10 14:03:42;;;;;;;2.17;1.33;;;;;;;;;;5067009;28;20214;-81
2022/12/10 14:06:14;;;;;;;0.70;0.70;;;;;;;;;;5056251;28;20721;-82
2022/12/10 14:08:53;;;;;;;0.70;0.70;;;;;;;;;;5054240;28;20197;-78
2022/12/10 14:11:21;;;;;;;0.70;0.70;;;;;;;;;;5053944;28;20285;-83
2022/12/10 14:13:52;;;;;;;1.55;1.45;;;;;;;;;;5057665;28;20685;-84
2022/12/10 14:16:21;;;;;;;0.98;0.90;;;;;;;;;;5058362;28;20233;-82
2022/12/10 14:18:55;;;;;;;0.80;0.70;;;;;;;;;;5046420;28;20230;-82
2022/12/10 14:21:24;;;;;;;0.70;0.70;;;;;;;;;;5039484;28;20564;-81
2022/12/10 14:23:51;;;;;;;0.70;0.60;;;;;;;;;;5039361;28;20209;-83
2022/12/10 14:26:26;;;;;;;0.70;0.70;;;;;;;;;;5053820;28;20201;-86
2022/12/10 14:28:56;;;;;;;0.70;0.60;;;;;;;;;;5055785;28;20185;-84
2022/12/10 14:31:26;;;;;;;0.70;0.60;;;;;;;;;;5063747;28;20193;-82
2022/12/10 14:33:55;;;;;;;0.70;0.60;;;;;;;;;;5058718;28;20224;-83
2022/12/10 14:36:26;;;;;;;0.70;0.70;;;;;;;;;;5054269;28;20278;-81
2022/12/10 14:38:53;;;;;;;0.70;0.70;;;;;;;;;;5063873;28;20205;-82
2022/12/10 14:41:21;;;;;;;0.70;0.60;;;;;;;;;;5066793;28;20196;-81
2022/12/10 14:43:48;;;;;;;0.70;0.70;;;;;;;;;;5067771;28;20276;-82
2022/12/10 14:46:17;;;;;;;0.70;0.60;;;;;;;;;;5065534;28;20200;-82
2022/12/10 14:48:45;;;;;;;0.60;0.60;;;;;;;;;;5054338;28;20232;-84
2022/12/10 14:51:14;;;;;;;0.68;0.60;;;;;;;;;;5054288;28;20198;-82
2022/12/10 14:53:41;;;;;;;0.70;0.60;;;;;;;;;;5038104;28;20218;-80
2022/12/10 14:56:08;;;;;;;0.70;0.70;;;;;;;;;;5052683;28;20182;-84
2022/12/10 14:58:37;;;;;;;0.70;0.70;;;;;;;;;;5053141;28;20201;-82
2022/12/10 15:01:12;;;;;;;0.70;0.70;;;;;;;;;;5043373;28;20215;-83
2022/12/10 15:03:44;;;;;;;0.70;0.60;;;;;;;;;;5051248;28;20233;-80
2022/12/10 15:06:13;;;;;;;0.90;0.90;;;;;;;;;;5070242;28;20215;-81
2022/12/10 15:08:41;;;;;;;0.70;0.70;;;;;;;;;;5055130;28;20261;-82
2022/12/10 15:11:12;;;;;;;0.70;0.60;;;;;;;;;;5044162;28;20300;-84
2022/12/10 15:13:39;;;;;;;1.52;1.42;;;;;;;;;;5059281;28;20226;-81
2022/12/10 15:16:15;;;;;;;0.70;0.70;;;;;;;;;;5054566;28;20200;-80